North Wichita, Kansas
Current Conditions -  °F | °C
As of 5:54 AM on Sunday 25 Jan 2015 (Local Time) from KAAO Reporting Station
Overcast Overcast  
Wind Chill: 39°   Ceiling: 6000
Heat Index: 47°   Visibility: 10mi
Dew Point: 31°   Wind: 23mph
Humidity: 54%   Direction: 320°NW
Pressure: 29.84"   Gusts: 36mph
Location:  37.7735°N, 97.3663°W
Report Text: KAAO 251154Z AUTO 32020G31KT 10SM FEW043 BKN060 OVC095 08/M01 A2984 RMK AO2 PK WND 30034/1143 SLP106 T00831006 10111 20078 53003
Loading
Personal Weather Stations






























Interactive Weather Map New forecast layout! Learn more

10-Day Weather Forecast

Advertisements
Track Severe Weather on mobile